createdAt,value
2018-12-23T00:07:46.555Z,0.70
2018-12-23T00:10:19.848Z,0.70
2018-12-23T00:12:53.605Z,0.70
2018-12-23T00:15:27.257Z,0.70
2018-12-23T00:18:06.404Z,0.80
2018-12-23T00:20:43.447Z,0.70
2018-12-23T00:23:14.066Z,0.80
2018-12-23T00:25:52.600Z,0.80
2018-12-23T00:28:26.103Z,0.80
2018-12-23T00:31:01.199Z,0.80
2018-12-23T00:33:35.792Z,0.80
2018-12-23T00:36:09.802Z,0.80
2018-12-23T00:38:51.789Z,0.80
2018-12-23T00:47:08.628Z,0.90
2018-12-23T00:49:51.987Z,0.90
2018-12-23T00:52:25.986Z,0.90
2018-12-23T00:55:04.303Z,0.90
2018-12-23T00:57:41.511Z,0.90
2018-12-23T01:00:17.458Z,0.90
2018-12-23T01:02:55.842Z,0.90
2018-12-23T01:05:35.734Z,0.90
2018-12-23T01:08:13.924Z,0.90
2018-12-23T01:10:47.013Z,0.90
2018-12-23T01:13:24.176Z,0.90
2018-12-23T01:16:12.381Z,0.90
2018-12-23T01:21:33.065Z,0.90
2018-12-23T01:24:11.354Z,0.90
2018-12-23T01:26:48.500Z,0.90
2018-12-23T01:29:21.185Z,0.90
2018-12-23T01:31:53.307Z,0.90
2018-12-23T01:34:25.815Z,0.90
2018-12-23T01:37:00.511Z,0.90
2018-12-23T01:39:36.266Z,0.90
2018-12-23T01:42:08.799Z,1.00
2018-12-23T01:44:40.174Z,1.00
2018-12-23T01:47:18.359Z,1.00
2018-12-23T01:49:53.818Z,1.00
2018-12-23T01:52:34.084Z,0.90
2018-12-23T01:57:56.030Z,0.90
2018-12-23T02:03:19.070Z,1.00
2018-12-23T02:08:50.555Z,1.00
2018-12-23T02:11:39.120Z,1.00
2018-12-23T02:17:09.805Z,1.00
2018-12-23T02:19:45.516Z,1.00
2018-12-23T02:22:20.235Z,0.90
2018-12-23T02:24:55.438Z,0.90
2018-12-23T02:27:28.484Z,0.90
2018-12-23T02:30:01.713Z,0.90
2018-12-23T02:32:34.976Z,0.90
2018-12-23T02:35:09.762Z,0.90
2018-12-23T02:37:43.043Z,0.90
2018-12-23T02:40:16.502Z,0.90
2018-12-23T02:42:49.205Z,0.90
2018-12-23T02:45:20.111Z,0.90
2018-12-23T02:47:52.218Z,0.90
2018-12-23T02:50:22.662Z,0.90
2018-12-23T02:52:54.861Z,0.90
2018-12-23T02:55:29.015Z,0.90
2018-12-23T02:58:07.768Z,0.90
2018-12-23T03:00:41.055Z,0.90
2018-12-23T03:03:15.385Z,0.90
2018-12-23T03:05:48.383Z,0.90
2018-12-23T03:08:22.539Z,0.90
2018-12-23T03:10:57.289Z,0.90
2018-12-23T03:13:30.912Z,0.90
2018-12-23T03:16:03.296Z,0.90
2018-12-23T03:18:35.672Z,0.90
2018-12-23T03:21:08.290Z,0.90
2018-12-23T03:23:42.560Z,0.90
2018-12-23T03:26:16.099Z,0.90
2018-12-23T03:28:51.032Z,0.90
2018-12-23T03:31:26.235Z,0.90
2018-12-23T03:34:00.167Z,0.90
2018-12-23T03:36:36.070Z,0.90
2018-12-23T03:39:08.667Z,0.90
2018-12-23T03:41:41.671Z,0.90
2018-12-23T03:44:16.377Z,0.80
2018-12-23T03:46:49.018Z,0.80
2018-12-23T03:49:21.475Z,0.80
2018-12-23T03:51:53.793Z,0.90
2018-12-23T03:54:26.429Z,0.80
2018-12-23T03:56:59.689Z,0.80
2018-12-23T03:59:32.865Z,0.80
2018-12-23T04:02:05.825Z,0.80
2018-12-23T04:04:40.515Z,0.80
2018-12-23T04:07:13.899Z,0.80
2018-12-23T04:09:47.573Z,0.80
2018-12-23T04:12:24.846Z,0.80
2018-12-23T04:14:57.786Z,0.70
2018-12-23T04:17:30.117Z,0.70
2018-12-23T04:20:02.889Z,0.70
2018-12-23T04:22:37.846Z,0.70
2018-12-23T04:25:11.541Z,0.70
2018-12-23T04:27:43.663Z,0.70
2018-12-23T04:30:15.797Z,0.70
2018-12-23T04:32:47.819Z,0.60
2018-12-23T04:35:22.911Z,0.60
2018-12-23T04:37:56.242Z,0.60
2018-12-23T04:40:28.346Z,0.60
2018-12-23T04:43:01.275Z,0.60
2018-12-23T04:45:41.907Z,0.60
2018-12-23T05:00:39.922Z,0.50
2018-12-23T05:27:55.555Z,0.40
2018-12-23T05:39:56.535Z,0.40
2018-12-23T07:01:57.723Z,0.30
2018-12-23T07:04:50.804Z,0.30
2018-12-23T07:07:23.993Z,0.30
2018-12-23T07:10:00.975Z,0.30
2018-12-23T07:12:49.852Z,0.30
2018-12-23T07:19:45.934Z,0.20
2018-12-23T07:22:19.068Z,0.20
2018-12-23T07:24:52.035Z,0.20
2018-12-23T07:27:22.616Z,0.20
2018-12-23T07:29:55.064Z,0.20
2018-12-23T07:32:27.176Z,0.20
2018-12-23T07:35:01.753Z,0.20
2018-12-23T07:37:34.504Z,0.20
2018-12-23T07:40:08.959Z,0.20
2018-12-23T07:42:41.233Z,0.20
2018-12-23T07:45:13.569Z,0.20
2018-12-23T07:47:45.404Z,0.20
2018-12-23T07:50:17.498Z,0.20
2018-12-23T07:52:51.655Z,0.20
2018-12-23T07:55:24.333Z,0.20
2018-12-23T07:57:56.982Z,0.20
2018-12-23T08:00:31.983Z,0.20
2018-12-23T08:03:04.449Z,0.20
2018-12-23T08:05:36.935Z,0.20
2018-12-23T08:08:07.121Z,0.20
2018-12-23T08:10:37.751Z,0.30
2018-12-23T08:13:09.583Z,0.30
2018-12-23T08:15:38.302Z,0.30
2018-12-23T08:18:12.674Z,0.30
2018-12-23T08:20:45.425Z,0.30
2018-12-23T08:23:17.235Z,0.30
2018-12-23T08:25:49.608Z,0.30
2018-12-23T08:28:21.557Z,0.30
2018-12-23T08:30:53.511Z,0.30
2018-12-23T08:33:26.133Z,0.30
2018-12-23T08:35:56.084Z,0.30
2018-12-23T08:38:28.018Z,0.40
2018-12-23T08:41:00.191Z,0.30
2018-12-23T08:43:34.752Z,0.30
2018-12-23T08:46:04.944Z,0.30
2018-12-23T08:48:37.199Z,0.30
2018-12-23T08:51:09.182Z,0.40
2018-12-23T08:53:39.467Z,0.40
2018-12-23T08:56:08.301Z,0.40
2018-12-23T08:58:40.707Z,0.40
2018-12-23T09:01:10.659Z,0.40
2018-12-23T09:03:42.597Z,0.40
2018-12-23T09:06:17.292Z,0.40
2018-12-23T09:08:50.130Z,0.50
2018-12-23T09:11:22.455Z,0.40
2018-12-23T09:13:54.625Z,0.40
2018-12-23T09:16:27.244Z,0.40
2018-12-23T09:18:59.601Z,0.40
2018-12-23T09:21:33.907Z,0.50
2018-12-23T09:24:08.140Z,0.40
2018-12-23T09:26:40.637Z,0.40
2018-12-23T09:29:13.262Z,0.50
2018-12-23T09:31:45.879Z,0.50
2018-12-23T09:34:18.305Z,0.50
2018-12-23T09:36:52.797Z,0.50
2018-12-23T09:39:23.926Z,0.50
2018-12-23T09:41:58.187Z,0.50
2018-12-23T09:44:30.988Z,0.50
2018-12-23T09:47:03.503Z,0.50
2018-12-23T09:49:35.396Z,0.50
2018-12-23T09:52:07.172Z,0.50
2018-12-23T09:54:39.281Z,0.50
2018-12-23T09:57:11.573Z,0.50
2018-12-23T09:59:45.722Z,0.50
2018-12-23T10:02:19.760Z,0.50
2018-12-23T10:04:52.704Z,0.50
2018-12-23T10:07:25.880Z,0.50
2018-12-23T10:10:01.940Z,0.60
2018-12-23T10:12:34.600Z,0.50
2018-12-23T10:15:06.969Z,0.60
2018-12-23T10:17:41.161Z,0.60
2018-12-23T10:20:15.822Z,0.60
2018-12-23T10:22:47.928Z,0.50
2018-12-23T10:25:22.555Z,0.50
2018-12-23T10:27:55.730Z,0.50
2018-12-23T10:30:26.285Z,0.50
2018-12-23T10:33:00.333Z,0.50
2018-12-23T10:35:35.219Z,0.50
2018-12-23T10:38:07.811Z,0.50
2018-12-23T10:40:39.506Z,0.50
2018-12-23T10:43:11.739Z,0.50
2018-12-23T10:45:47.537Z,0.40
2018-12-23T10:48:21.795Z,0.40
2018-12-23T10:50:54.504Z,0.40
2018-12-23T10:53:26.251Z,0.50
2018-12-23T10:55:58.448Z,0.40
2018-12-23T10:58:30.447Z,0.40
2018-12-23T11:01:03.117Z,0.50
2018-12-23T11:03:33.184Z,0.50
2018-12-23T11:06:03.200Z,0.50
2018-12-23T11:08:34.441Z,0.50
2018-12-23T11:11:06.262Z,0.50
2018-12-23T11:13:38.463Z,0.60
2018-12-23T11:16:07.134Z,0.50
2018-12-23T11:18:39.663Z,0.60
2018-12-23T11:21:14.025Z,0.60
2018-12-23T11:23:46.548Z,0.60
2018-12-23T11:26:15.228Z,0.60
2018-12-23T11:28:49.537Z,0.60
2018-12-23T11:31:18.169Z,0.60
2018-12-23T11:33:50.660Z,0.60
2018-12-23T11:36:23.325Z,0.60
2018-12-23T11:38:57.439Z,0.60
2018-12-23T11:41:29.676Z,0.60
2018-12-23T11:44:00.818Z,0.60
2018-12-23T11:46:34.789Z,0.60
2018-12-23T11:49:07.391Z,0.60
2018-12-23T11:51:36.326Z,0.60
2018-12-23T11:54:04.974Z,0.60
2018-12-23T11:56:37.635Z,0.60
2018-12-23T11:59:09.563Z,0.50
2018-12-23T12:01:41.397Z,0.50
2018-12-23T12:04:13.423Z,0.50
2018-12-23T12:06:45.172Z,0.50
2018-12-23T12:09:14.958Z,0.40
2018-12-23T12:11:51.002Z,0.40
2018-12-23T12:14:20.211Z,0.40
2018-12-23T12:16:51.993Z,0.40
2018-12-23T12:19:20.604Z,0.40
2018-12-23T12:21:50.671Z,0.40
2018-12-23T12:24:22.800Z,0.30
2018-12-23T12:26:55.435Z,0.40
2018-12-23T12:29:24.144Z,0.30
2018-12-23T12:31:55.856Z,0.30
2018-12-23T12:34:27.516Z,0.40
2018-12-23T12:36:56.183Z,0.40
2018-12-23T12:39:24.810Z,0.30
2018-12-23T12:41:53.517Z,0.30
2018-12-23T12:44:27.572Z,0.30
2018-12-23T12:47:01.007Z,0.30
2018-12-23T12:49:32.899Z,0.30
2018-12-23T12:52:04.861Z,0.30
2018-12-23T12:54:36.881Z,0.30
2018-12-23T12:57:08.698Z,0.30
2018-12-23T12:59:41.013Z,0.30
2018-12-23T13:02:15.884Z,0.30
2018-12-23T13:04:48.028Z,0.30
2018-12-23T13:07:16.628Z,0.20
2018-12-23T13:09:48.644Z,0.20
2018-12-23T13:12:17.187Z,0.20
2018-12-23T13:14:45.846Z,0.20
2018-12-23T13:17:14.447Z,0.20
2018-12-23T13:19:43.035Z,0.10
2018-12-23T13:22:11.648Z,0.10
2018-12-23T13:24:43.547Z,0.10
2018-12-23T13:27:16.151Z,0.10
2018-12-23T13:29:47.883Z,0.10
2018-12-23T13:32:16.478Z,0.10
2018-12-23T13:34:48.227Z,0.00
2018-12-23T13:37:16.950Z,0.00
2018-12-23T13:39:45.638Z,0.00
2018-12-23T13:42:32.261Z,0.00
2018-12-23T13:45:17.512Z,0.00
2018-12-23T13:48:08.052Z,-0.10
2018-12-23T13:50:49.749Z,-0.10
2018-12-23T13:53:28.429Z,-0.10
2018-12-23T13:56:42.668Z,-0.10
2018-12-23T13:59:22.144Z,-0.10
2018-12-23T14:02:10.506Z,-0.10
2018-12-23T14:04:52.271Z,-0.10
2018-12-23T14:07:45.843Z,-0.10
2018-12-23T14:10:54.915Z,-0.20
2018-12-23T14:13:23.531Z,-0.10
2018-12-23T14:15:55.695Z,-0.10
2018-12-23T14:18:24.352Z,-0.20
2018-12-23T14:20:56.245Z,-0.20
2018-12-23T14:23:24.922Z,-0.20
2018-12-23T14:25:53.541Z,-0.20
2018-12-23T14:28:22.416Z,-0.20
2018-12-23T14:30:54.938Z,-0.20
2018-12-23T14:33:23.560Z,-0.20
2018-12-23T14:35:52.311Z,-0.20
2018-12-23T14:38:20.967Z,-0.20
2018-12-23T14:40:49.684Z,-0.20
2018-12-23T14:43:18.574Z,-0.20
2018-12-23T14:45:47.175Z,-0.20
2018-12-23T14:48:15.766Z,-0.20
2018-12-23T14:50:44.380Z,-0.20
2018-12-23T14:53:16.397Z,-0.20
2018-12-23T14:55:48.189Z,-0.20
2018-12-23T14:58:16.945Z,-0.20
2018-12-23T15:00:45.568Z,-0.20
2018-12-23T15:03:18.190Z,-0.20
2018-12-23T15:05:46.797Z,-0.30
2018-12-23T15:08:18.790Z,-0.30
2018-12-23T15:10:47.433Z,-0.30
2018-12-23T15:13:17.934Z,-0.30
2018-12-23T15:15:49.744Z,-0.30
2018-12-23T15:18:22.302Z,-0.30
2018-12-23T15:20:56.507Z,-0.30
2018-12-23T15:23:25.163Z,-0.30
2018-12-23T15:25:55.371Z,-0.30
2018-12-23T15:28:25.027Z,-0.30
2018-12-23T15:30:53.796Z,-0.30
2018-12-23T15:33:26.197Z,-0.30
2018-12-23T15:35:57.973Z,-0.30
2018-12-23T15:38:26.568Z,-0.30
2018-12-23T15:40:58.461Z,-0.30
2018-12-23T15:43:27.071Z,-0.30
2018-12-23T15:45:55.684Z,-0.30
2018-12-23T15:48:24.269Z,-0.30
2018-12-23T15:50:52.863Z,-0.30
2018-12-23T15:53:21.593Z,-0.30
2018-12-23T15:55:54.100Z,-0.30
2018-12-23T15:58:25.852Z,-0.40
2018-12-23T16:00:54.489Z,-0.30
2018-12-23T16:03:23.157Z,-0.30
2018-12-23T16:05:55.368Z,-0.30
2018-12-23T16:08:25.025Z,-0.30
2018-12-23T16:10:53.647Z,-0.30
2018-12-23T16:13:22.229Z,-0.30
2018-12-23T16:15:54.879Z,-0.30
2018-12-23T16:18:26.906Z,-0.30
2018-12-23T16:20:58.583Z,-0.30
2018-12-23T16:23:27.139Z,-0.30
2018-12-23T16:25:55.811Z,-0.30
2018-12-23T16:28:30.636Z,-0.30
2018-12-23T16:31:00.870Z,-0.30
2018-12-23T16:33:29.476Z,-0.30
2018-12-23T16:35:58.019Z,-0.30
2018-12-23T16:38:39.254Z,-0.30
2018-12-23T16:41:07.880Z,-0.30
2018-12-23T16:43:36.479Z,-0.30
2018-12-23T16:46:05.116Z,-0.30
2018-12-23T16:48:33.667Z,-0.30
2018-12-23T16:51:02.204Z,-0.30
2018-12-23T16:53:30.740Z,-0.30
2018-12-23T16:55:59.747Z,-0.30
2018-12-23T16:58:28.327Z,-0.40
2018-12-23T17:01:00.983Z,-0.40
2018-12-23T17:03:32.576Z,-0.40
2018-12-23T17:06:01.203Z,-0.40
2018-12-23T17:08:35.556Z,-0.40
2018-12-23T17:11:04.195Z,-0.40
2018-12-23T17:13:32.704Z,-0.40
2018-12-23T17:16:04.937Z,-0.40
2018-12-23T17:18:39.791Z,-0.40
2018-12-23T17:21:08.351Z,-0.40
2018-12-23T17:23:36.892Z,-0.40
2018-12-23T17:26:09.383Z,-0.40
2018-12-23T17:28:43.438Z,-0.40
2018-12-23T17:33:38.100Z,-0.40
2018-12-23T17:36:08.583Z,-0.40
2018-12-23T17:38:40.331Z,-0.40
2018-12-23T17:41:08.957Z,-0.40
2018-12-23T17:43:37.447Z,-0.40
2018-12-23T17:46:05.962Z,-0.40
2018-12-23T17:48:34.543Z,-0.40
2018-12-23T17:51:03.061Z,-0.40
2018-12-23T17:53:34.771Z,-0.40
2018-12-23T17:56:03.296Z,-0.40
2018-12-23T17:58:31.825Z,-0.50
2018-12-23T18:01:04.132Z,-0.40
2018-12-23T18:03:32.719Z,-0.40
2018-12-23T18:06:01.265Z,-0.50
2018-12-23T18:08:31.233Z,-0.50
2018-12-23T18:10:59.723Z,-0.40
2018-12-23T18:13:31.981Z,-0.40
2018-12-23T18:16:02.395Z,-0.40
2018-12-23T18:18:34.852Z,-0.50
2018-12-23T18:21:07.113Z,-0.40
2018-12-23T18:23:36.503Z,-0.40
2018-12-23T18:26:05.203Z,-0.50
2018-12-23T18:28:33.768Z,-0.40
2018-12-23T18:31:02.452Z,-0.50
2018-12-23T18:33:30.987Z,-0.50
2018-12-23T18:35:59.559Z,-0.50
2018-12-23T18:38:28.496Z,-0.50
2018-12-23T18:40:57.047Z,-0.60
2018-12-23T18:49:22.485Z,-0.50
2018-12-23T18:51:51.075Z,-0.60
2018-12-23T18:54:19.620Z,-0.60
2018-12-23T18:56:49.791Z,-0.60
2018-12-23T18:59:20.384Z,-0.60
2018-12-23T19:01:57.106Z,-0.60
2018-12-23T19:04:27.763Z,-0.60
2018-12-23T19:06:56.403Z,-0.60
2018-12-23T19:09:32.131Z,-0.60
2018-12-23T19:12:30.435Z,-0.60
2018-12-23T19:15:26.068Z,-0.60
2018-12-23T19:18:05.339Z,-0.60
2018-12-23T19:21:07.607Z,-0.70
2018-12-23T19:23:54.223Z,-0.60
2018-12-23T19:35:16.339Z,-0.70
2018-12-23T19:37:59.758Z,-0.70
2018-12-23T19:40:39.383Z,-0.70
2018-12-23T19:45:39.996Z,-0.80
2018-12-23T19:50:29.629Z,-0.70
2018-12-23T19:53:09.501Z,-0.70
2018-12-23T19:55:49.487Z,-0.70
2018-12-23T19:58:32.957Z,-0.70
2018-12-23T20:01:27.031Z,-0.80
2018-12-23T20:04:43.752Z,-0.80
2018-12-23T20:07:39.060Z,-0.70
2018-12-23T20:10:17.685Z,-0.80
2018-12-23T20:13:29.092Z,-0.70
2018-12-23T20:19:13.271Z,-0.70
2018-12-23T20:21:58.846Z,-0.70
2018-12-23T20:24:43.167Z,-0.80
2018-12-23T20:27:28.679Z,-0.80
2018-12-23T20:30:16.300Z,-0.80
2018-12-23T20:35:03.987Z,-0.80
2018-12-23T20:38:29.468Z,-0.80
2018-12-23T20:41:10.704Z,-0.80
2018-12-23T20:48:03.319Z,-0.90
2018-12-23T20:50:43.283Z,-0.90
2018-12-23T20:57:25.936Z,-0.90
2018-12-23T21:00:14.215Z,-0.90
2018-12-23T21:05:00.820Z,-1.00
2018-12-23T21:08:31.221Z,-1.00
2018-12-23T21:13:16.716Z,-1.00
2018-12-23T21:15:56.461Z,-1.10
2018-12-23T21:19:43.899Z,-1.10
2018-12-23T21:24:34.244Z,-1.20
2018-12-23T21:27:18.881Z,-1.20
2018-12-23T21:30:07.419Z,-1.10
2018-12-23T21:37:04.071Z,-1.20
2018-12-23T21:39:54.014Z,-1.20
2018-12-23T21:42:33.725Z,-1.30
2018-12-23T21:45:57.291Z,-1.30
2018-12-23T21:48:40.372Z,-1.30
2018-12-23T21:51:21.651Z,-1.30
2018-12-23T21:54:37.598Z,-1.40
2018-12-23T21:57:22.346Z,-1.40
2018-12-23T22:00:04.995Z,-1.40
2018-12-23T22:03:52.577Z,-1.40
2018-12-23T22:06:32.507Z,-1.40
2018-12-23T22:13:22.315Z,-1.40
2018-12-23T22:15:55.302Z,-1.40
2018-12-23T22:18:26.648Z,-1.30
2018-12-23T22:20:55.508Z,-1.30
2018-12-23T22:23:28.947Z,-1.30
2018-12-23T22:26:02.956Z,-1.30
2018-12-23T22:28:32.159Z,-1.30
2018-12-23T22:31:04.123Z,-1.30
2018-12-23T22:33:33.386Z,-1.30
2018-12-23T22:36:07.263Z,-1.30
2018-12-23T22:38:40.423Z,-1.30
2018-12-23T22:41:09.927Z,-1.30
2018-12-23T22:43:38.501Z,-1.30
2018-12-23T22:46:07.228Z,-1.30
2018-12-23T22:48:35.943Z,-1.30
2018-12-23T22:51:04.496Z,-1.30
2018-12-23T22:53:33.132Z,-1.30
2018-12-23T22:56:01.670Z,-1.30
2018-12-23T22:58:30.333Z,-1.30
2018-12-23T23:03:55.292Z,-1.30
2018-12-23T23:06:23.888Z,-1.30
2018-12-23T23:08:54.221Z,-1.30
2018-12-23T23:11:22.884Z,-1.30
2018-12-23T23:13:51.416Z,-1.30
2018-12-23T23:16:21.177Z,-1.30
2018-12-23T23:18:49.755Z,-1.30
2018-12-23T23:21:24.156Z,-1.30
2018-12-23T23:26:48.592Z,-1.30
2018-12-23T23:29:17.172Z,-1.30
2018-12-23T23:31:49.416Z,-1.30
2018-12-23T23:34:17.960Z,-1.30
2018-12-23T23:39:55.410Z,-1.30
2018-12-23T23:42:24.921Z,-1.30
2018-12-23T23:44:54.448Z,-1.30
2018-12-23T23:47:23.975Z,-1.30
2018-12-23T23:49:53.594Z,-1.30
2018-12-23T23:52:23.120Z,-1.40
2018-12-23T23:54:52.674Z,-1.40
2018-12-23T23:57:22.171Z,-1.50
